• vieta
  • image
  • image
  • image
mod_vvisit_countermod_vvisit_countermod_vvisit_countermod_vvisit_countermod_vvisit_countermod_vvisit_counter
mod_vvisit_counterŠiandien139
mod_vvisit_counterVakar657
mod_vvisit_counterŠią savaitę2811
mod_vvisit_counterPraėjusią savaitę5020
mod_vvisit_counterŠį mėnesį9853
mod_vvisit_counterPraėjusį mėnesį19770
mod_vvisit_counterViso795013

Mes turime: 7 svečius, 3 bots online
Jūsų IP: 54.82.81.154
 , 
Šiandien: Gruo 14, 2017
Oro uostas / Naujienos / 2015 Sausis

2015 Sausis

Š.m. sausio 20 d. tarptautiniame Šiaulių oro uoste apsilankė Šiaulių universiteto Verslo administravimo studijų programos logistikos valdymo specializacijos 4 kurso studentai lydimi Vadybos katedros dėstytojos lekt. Inetos Beniušienės. Studentai stebėjo Izraelio aviakompanijos „CAL Cargo Airlines“ orlaivio Boeing 747-400 aptarnavimo procesą bei iš arčiau susipažino su antžeminių paslaugų aptarnavimo specifika.

 

Studentų atsiliepimus ir įspūdžius skaitykite čia:

http://www.su.lt/smf/naujienos/16053-tarptautiniame-iauli-oro-uoste

Šiandien

Ketvirtadienis, 14 Gruodis 2017

Orų prognozė

Šiauliai °C
   

Orų prognozė aviacijai

[source: ADDS]
METAR
EYSA 140350Z 15013KT 9999 BR BKN008 M02/M03 Q1001 R14L/29//95 R14R/29//95 GRN NOSIG =
TAF
TAF EYSA 140205Z 1403/1412 15014G24KT 7000 SCT005 SCT015 TEMPO 1403/1406 3000 BR BKN005 BECMG 1410/1412 OVC015 =
SR / SS: 06:46 / 13:59 UTC (EYSA 2017-12-14)

Paieška

Lankytojai

Mes turime 10 svečius online

tic logo lt